Terminal Aerodrome Forecast
Issued by NWS

Home | Current Version | Previous Version | Text Only | Print | Product List | Glossary On
Versions: 1 2 3 4 5 6 7 8 9 10 11 12 13 14 15 16 17
000
FTUS43 KSGF 252300 RRA
TAFJLN
TAF
KJLN 252337Z 2600/2624 26007KT P6SM BKN150
     FM260300 30010KT P6SM SCT050 OVC100
     FM260500 33013G23KT P6SM OVC012
      TEMPO 2605/2609 6SM -SN
     FM260900 33016G25KT P6SM OVC015
     FM261700 35014G24KT P6SM BKN025
     FM262200 34013G19KT P6SM SCT025=

USA.gov is the U.S. government's official web portal to all federal, state and local government web resources and services.